Terminal Aerodrome Forecast
Issued by NWS Buffalo, NY

Home | Current Version | Previous Version | Text Only | Print | Product List | Glossary On
Versions: 1 2 3 4 5 6 7 8 9 10 11 12 13 14 15 16 17 18 19 20 21 22 23 24 25 26
000
FTUS41 KBUF 012300
TAFROC
TAF
KROC 012337Z 0200/0224 VRB03KT P6SM SCT150
     FM020500 20009KT P6SM VCSH BKN060
     FM020700 22010KT P6SM BKN050
      TEMPO 0209/0213 BKN025
     FM021600 24012G18KT 6SM BR VCTS OVC050CB
     FM021700 25010KT 6SM -SHRA VCTS OVC040CB
     FM022100 25012KT P6SM OVC120=

USA.gov is the U.S. government's official web portal to all federal, state and local government web resources and services.